Time;durP1;ratioP1;P1;durP2;ratioP2;P2;SDS_P1;SDS_P2;PMS_P1;PMS_P2;Temp;Humidity;BMP_temperature;BMP_pressure;BME280_temperature;BME280_humidity;BME280_pressure;Samples;Min_cycle;Max_cycle;Signal;HPM_P1;HPM_P2
2021/07/29 00:01:00;;;;;;;7.38;1.58;;;;;;;;;;5051888;28;20496;-72
2021/07/29 00:03:27;;;;;;;6.43;1.00;;;;;;;;;;5047412;28;20029;-72
2021/07/29 00:05:54;;;;;;;5.78;1.17;;;;;;;;;;5051541;28;20035;-72
2021/07/29 00:08:22;;;;;;;5.13;0.65;;;;;;;;;;5050096;28;20063;-71
2021/07/29 00:10:49;;;;;;;5.13;0.85;;;;;;;;;;5050201;28;20043;-72
2021/07/29 00:13:17;;;;;;;6.47;0.90;;;;;;;;;;5049253;28;20025;-71
2021/07/29 00:15:44;;;;;;;6.28;1.05;;;;;;;;;;5035156;28;20029;-71
2021/07/29 00:20:39;;;;;;;5.20;0.85;;;;;;;;;;5050843;28;20466;-69
2021/07/29 00:23:06;;;;;;;5.32;0.75;;;;;;;;;;5048055;28;20021;-72
2021/07/29 00:25:34;;;;;;;6.05;1.00;;;;;;;;;;5048698;28;20025;-69
2021/07/29 00:28:02;;;;;;;7.03;0.70;;;;;;;;;;5044166;28;20029;-71
2021/07/29 00:30:29;;;;;;;4.43;0.65;;;;;;;;;;5047194;28;20029;-70
2021/07/29 00:32:56;;;;;;;5.63;1.38;;;;;;;;;;5044731;28;20025;-70
2021/07/29 00:35:24;;;;;;;2.72;0.60;;;;;;;;;;5041217;28;20029;-70
2021/07/29 00:37:54;;;;;;;6.03;0.85;;;;;;;;;;5042109;28;20047;-72
2021/07/29 00:40:22;;;;;;;4.28;0.40;;;;;;;;;;5043250;28;20072;-71
2021/07/29 00:42:49;;;;;;;5.75;1.20;;;;;;;;;;5042825;28;20021;-72
2021/07/29 00:45:16;;;;;;;4.30;0.70;;;;;;;;;;5045359;28;20052;-71
2021/07/29 00:47:44;;;;;;;3.20;0.30;;;;;;;;;;5045830;28;20027;-69
2021/07/29 00:50:12;;;;;;;2.75;0.63;;;;;;;;;;5045967;28;20051;-70
2021/07/29 00:52:39;;;;;;;5.20;0.60;;;;;;;;;;5045255;28;20033;-70
2021/07/29 00:55:07;;;;;;;2.78;0.60;;;;;;;;;;5049056;28;20040;-70
2021/07/29 00:57:34;;;;;;;4.40;0.88;;;;;;;;;;5056210;28;20041;-68
2021/07/29 01:00:02;;;;;;;5.13;0.57;;;;;;;;;;5045300;28;20432;-70
2021/07/29 01:02:29;;;;;;;3.72;0.50;;;;;;;;;;5050950;28;20032;-69
2021/07/29 01:04:56;;;;;;;5.00;0.55;;;;;;;;;;5056139;28;20025;-69
2021/07/29 01:07:24;;;;;;;4.55;0.45;;;;;;;;;;5054457;28;20044;-68
2021/07/29 01:09:51;;;;;;;4.85;1.42;;;;;;;;;;5054751;28;20104;-69
2021/07/29 01:12:18;;;;;;;4.97;0.70;;;;;;;;;;5053653;28;20029;-70
2021/07/29 01:14:48;;;;;;;5.68;0.60;;;;;;;;;;5050255;28;20037;-68
2021/07/29 01:17:15;;;;;;;4.28;0.73;;;;;;;;;;5048046;28;20029;-69
2021/07/29 01:19:42;;;;;;;2.85;0.73;;;;;;;;;;5046797;28;20048;-69
2021/07/29 01:22:09;;;;;;;4.30;0.73;;;;;;;;;;5048449;28;20017;-69
2021/07/29 01:24:36;;;;;;;6.80;1.00;;;;;;;;;;5049406;28;20020;-70
2021/07/29 01:27:04;;;;;;;6.30;0.70;;;;;;;;;;5049865;28;20031;-69
2021/07/29 01:29:31;;;;;;;5.72;0.93;;;;;;;;;;5048726;28;20112;-69
2021/07/29 01:31:58;;;;;;;5.25;0.90;;;;;;;;;;5050378;28;20135;-71
2021/07/29 01:34:25;;;;;;;4.20;0.57;;;;;;;;;;5050174;28;20036;-71
2021/07/29 01:36:53;;;;;;;5.40;0.85;;;;;;;;;;5051745;28;20084;-69
2021/07/29 01:39:20;;;;;;;3.08;0.57;;;;;;;;;;5046038;28;20025;-70
2021/07/29 01:41:47;;;;;;;5.78;0.77;;;;;;;;;;5052533;28;20033;-70
2021/07/29 01:44:14;;;;;;;4.35;1.08;;;;;;;;;;5051969;28;20413;-70
2021/07/29 01:46:41;;;;;;;3.28;0.68;;;;;;;;;;5050415;28;20048;-69
2021/07/29 01:49:08;;;;;;;8.02;0.60;;;;;;;;;;5049980;28;20033;-69
2021/07/29 01:51:35;;;;;;;2.38;0.40;;;;;;;;;;5048977;28;20052;-70
2021/07/29 01:54:02;;;;;;;5.55;0.75;;;;;;;;;;5048575;28;20013;-71
2021/07/29 01:56:30;;;;;;;6.55;0.50;;;;;;;;;;5045643;28;20070;-71
2021/07/29 01:59:04;;;;;;;3.05;0.50;;;;;;;;;;5047960;28;20056;-72
2021/07/29 02:01:32;;;;;;;3.97;0.55;;;;;;;;;;5050802;28;20524;-70
2021/07/29 02:03:59;;;;;;;3.95;0.73;;;;;;;;;;5047160;28;20020;-72
2021/07/29 02:06:26;;;;;;;2.55;0.30;;;;;;;;;;5053774;28;20049;-70
2021/07/29 02:08:53;;;;;;;2.20;0.73;;;;;;;;;;5049333;28;20021;-71
2021/07/29 02:11:20;;;;;;;1.75;0.40;;;;;;;;;;5050649;28;20032;-71
2021/07/29 02:13:47;;;;;;;5.25;0.40;;;;;;;;;;5048122;28;20025;-71
2021/07/29 02:16:15;;;;;;;3.15;0.88;;;;;;;;;;5045925;28;20025;-72
2021/07/29 02:18:42;;;;;;;4.63;0.63;;;;;;;;;;5047017;28;20028;-71
2021/07/29 02:21:10;;;;;;;2.97;0.80;;;;;;;;;;5049299;28;20029;-69
2021/07/29 02:23:38;;;;;;;4.22;0.40;;;;;;;;;;5048294;28;20087;-71
2021/07/29 02:26:05;;;;;;;4.75;0.43;;;;;;;;;;5050196;28;20075;-71
2021/07/29 02:28:32;;;;;;;1.63;0.25;;;;;;;;;;5045425;28;20029;-70
2021/07/29 02:30:59;;;;;;;2.38;0.52;;;;;;;;;;5053395;28;20048;-73
2021/07/29 02:33:26;;;;;;;2.83;0.50;;;;;;;;;;5051998;28;20028;-72
2021/07/29 02:35:53;;;;;;;2.58;0.52;;;;;;;;;;5051472;28;20040;-71
2021/07/29 02:38:21;;;;;;;2.70;0.40;;;;;;;;;;5055487;28;20134;-71
2021/07/29 02:40:49;;;;;;;2.55;0.40;;;;;;;;;;5042759;28;20040;-74
2021/07/29 02:43:16;;;;;;;1.10;0.25;;;;;;;;;;5047397;28;20024;-73
2021/07/29 02:45:43;;;;;;;2.13;0.40;;;;;;;;;;5051281;28;20064;-71
2021/07/29 02:48:10;;;;;;;1.67;0.30;;;;;;;;;;5050831;28;20381;-70
2021/07/29 02:50:37;;;;;;;2.63;0.35;;;;;;;;;;5049559;28;20025;-72
2021/07/29 02:53:04;;;;;;;2.97;0.50;;;;;;;;;;5049900;28;20014;-71
2021/07/29 02:55:31;;;;;;;3.08;0.45;;;;;;;;;;5044374;28;20042;-71
2021/07/29 02:57:59;;;;;;;3.65;0.80;;;;;;;;;;5049168;28;20509;-72
2021/07/29 03:00:26;;;;;;;3.42;0.50;;;;;;;;;;5048683;28;20050;-70
2021/07/29 03:02:53;;;;;;;2.08;0.35;;;;;;;;;;5046973;28;20036;-70
2021/07/29 03:05:20;;;;;;;1.77;0.30;;;;;;;;;;5051639;28;20123;-73
2021/07/29 03:07:47;;;;;;;2.33;0.60;;;;;;;;;;5049195;28;20130;-72
2021/07/29 03:10:14;;;;;;;4.55;0.40;;;;;;;;;;5061744;28;20036;-73
2021/07/29 03:12:41;;;;;;;2.72;0.70;;;;;;;;;;5047288;28;20024;-72
2021/07/29 03:15:12;;;;;;;2.75;0.47;;;;;;;;;;5049515;28;20021;-68
2021/07/29 03:17:39;;;;;;;2.97;0.50;;;;;;;;;;5049175;28;20037;-69
2021/07/29 03:20:06;;;;;;;0.98;0.30;;;;;;;;;;5055567;28;20033;-69
2021/07/29 03:22:33;;;;;;;1.95;0.40;;;;;;;;;;5047798;28;20113;-70
2021/07/29 03:25:01;;;;;;;2.90;0.47;;;;;;;;;;5045724;28;20041;-70
2021/07/29 03:27:28;;;;;;;3.22;0.50;;;;;;;;;;5043905;28;20111;-70
2021/07/29 03:29:55;;;;;;;2.63;0.55;;;;;;;;;;5042341;28;20112;-70
2021/07/29 03:32:22;;;;;;;4.40;0.75;;;;;;;;;;5042694;28;20061;-70
2021/07/29 03:34:49;;;;;;;3.30;0.40;;;;;;;;;;5048402;28;20553;-69
2021/07/29 03:37:16;;;;;;;3.15;0.30;;;;;;;;;;5049489;28;20037;-70
2021/07/29 03:39:43;;;;;;;1.23;0.30;;;;;;;;;;5046663;28;20025;-69
2021/07/29 03:42:10;;;;;;;4.30;0.50;;;;;;;;;;5047765;28;20082;-70
2021/07/29 03:44:38;;;;;;;2.17;0.22;;;;;;;;;;5062320;28;20466;-70
2021/07/29 03:47:05;;;;;;;1.10;0.20;;;;;;;;;;5050553;28;20060;-70
2021/07/29 03:49:35;;;;;;;1.95;0.50;;;;;;;;;;5041563;28;20029;-70
2021/07/29 03:52:03;;;;;;;3.30;0.82;;;;;;;;;;5043989;28;20473;-70
2021/07/29 03:54:31;;;;;;;3.88;0.50;;;;;;;;;;5045227;28;20469;-70
2021/07/29 03:56:58;;;;;;;1.83;0.55;;;;;;;;;;5049427;28;20508;-68
2021/07/29 03:59:25;;;;;;;2.78;0.60;;;;;;;;;;5047246;28;20029;-69
2021/07/29 04:01:52;;;;;;;1.05;0.10;;;;;;;;;;5047809;28;20112;-68
2021/07/29 04:04:19;;;;;;;3.10;0.30;;;;;;;;;;5045268;28;20017;-69
2021/07/29 04:06:46;;;;;;;1.23;0.20;;;;;;;;;;5046908;28;20036;-69
2021/07/29 04:09:14;;;;;;;2.03;0.45;;;;;;;;;;5044818;28;20021;-70
2021/07/29 04:11:41;;;;;;;1.58;0.20;;;;;;;;;;5047223;28;20029;-69
2021/07/29 04:14:08;;;;;;;0.60;0.20;;;;;;;;;;5040513;28;20025;-69
2021/07/29 04:16:35;;;;;;;2.10;0.28;;;;;;;;;;5046100;28;20033;-67
2021/07/29 04:19:02;;;;;;;1.65;0.20;;;;;;;;;;5043204;28;20044;-69
2021/07/29 04:21:29;;;;;;;3.22;0.82;;;;;;;;;;5047958;28;20108;-70
2021/07/29 04:23:57;;;;;;;1.88;0.22;;;;;;;;;;5047351;28;20057;-70
2021/07/29 04:26:24;;;;;;;1.02;0.17;;;;;;;;;;5049148;28;20037;-69
2021/07/29 04:28:51;;;;;;;3.25;0.32;;;;;;;;;;5046625;28;20032;-70
2021/07/29 04:31:18;;;;;;;3.22;0.38;;;;;;;;;;5048815;28;20025;-70
2021/07/29 04:33:45;;;;;;;2.40;0.20;;;;;;;;;;5048603;28;20040;-70
2021/07/29 04:36:12;;;;;;;3.35;0.60;;;;;;;;;;5048737;28;20049;-70
2021/07/29 04:38:43;;;;;;;3.10;0.20;;;;;;;;;;5048405;28;20068;-68
2021/07/29 04:41:10;;;;;;;2.20;0.40;;;;;;;;;;5048216;28;20059;-71
2021/07/29 04:43:40;;;;;;;2.05;0.30;;;;;;;;;;5048712;28;20127;-70
2021/07/29 04:46:07;;;;;;;2.25;0.28;;;;;;;;;;5047185;28;20041;-70
2021/07/29 04:48:34;;;;;;;2.05;0.32;;;;;;;;;;5042585;28;20067;-70
2021/07/29 04:51:02;;;;;;;2.78;0.68;;;;;;;;;;5040763;28;20059;-70
2021/07/29 04:53:29;;;;;;;4.35;0.30;;;;;;;;;;5046492;28;20045;-70
2021/07/29 04:55:56;;;;;;;2.65;0.35;;;;;;;;;;5048291;28;20016;-70
2021/07/29 04:58:23;;;;;;;1.08;0.20;;;;;;;;;;5045680;28;20040;-72
2021/07/29 05:00:51;;;;;;;2.78;0.50;;;;;;;;;;5048984;28;20044;-69
2021/07/29 05:03:18;;;;;;;1.25;0.30;;;;;;;;;;5045260;28;20025;-69
2021/07/29 05:05:45;;;;;;;2.58;0.28;;;;;;;;;;5049834;28;20060;-71
2021/07/29 05:08:12;;;;;;;1.25;0.20;;;;;;;;;;5049760;28;20518;-70
2021/07/29 05:10:39;;;;;;;1.55;0.40;;;;;;;;;;5051226;28;20072;-70
2021/07/29 05:13:06;;;;;;;1.73;0.40;;;;;;;;;;5046990;28;20191;-70
2021/07/29 05:15:33;;;;;;;2.38;0.30;;;;;;;;;;5046364;28;20040;-70
2021/07/29 05:18:00;;;;;;;0.65;0.20;;;;;;;;;;5048889;28;20052;-70
2021/07/29 05:20:28;;;;;;;2.08;0.38;;;;;;;;;;5050785;28;20052;-70
2021/07/29 05:22:55;;;;;;;3.13;0.38;;;;;;;;;;5048480;28;20037;-69
2021/07/29 05:25:25;;;;;;;3.17;0.50;;;;;;;;;;5050158;28;20580;-69
2021/07/29 05:27:52;;;;;;;2.63;0.40;;;;;;;;;;5047896;28;20037;-69
2021/07/29 05:30:20;;;;;;;2.45;0.40;;;;;;;;;;5051059;28;20108;-69
2021/07/29 05:32:47;;;;;;;1.63;0.43;;;;;;;;;;5044687;28;20446;-68
2021/07/29 05:35:15;;;;;;;1.90;0.22;;;;;;;;;;5047738;28;20040;-69
2021/07/29 05:37:42;;;;;;;1.52;0.35;;;;;;;;;;5049910;28;20044;-70
2021/07/29 05:40:09;;;;;;;2.38;0.47;;;;;;;;;;5066877;28;20036;-68
2021/07/29 05:42:36;;;;;;;2.22;0.50;;;;;;;;;;5054228;28;20045;-69
2021/07/29 05:45:04;;;;;;;1.98;0.80;;;;;;;;;;5063129;28;20117;-69
2021/07/29 05:47:31;;;;;;;2.33;0.40;;;;;;;;;;5052881;28;20033;-69
2021/07/29 05:49:58;;;;;;;1.60;0.60;;;;;;;;;;5050359;28;20064;-68
2021/07/29 05:52:25;;;;;;;2.25;0.40;;;;;;;;;;5047959;28;20100;-69
2021/07/29 05:54:52;;;;;;;1.95;0.40;;;;;;;;;;5050547;28;20727;-69
2021/07/29 05:57:19;;;;;;;3.47;0.20;;;;;;;;;;5050874;28;20036;-70
2021/07/29 05:59:46;;;;;;;2.50;0.22;;;;;;;;;;5049716;28;20021;-68
2021/07/29 06:02:14;;;;;;;2.42;0.80;;;;;;;;;;5048350;28;20095;-70
2021/07/29 06:04:41;;;;;;;1.13;0.20;;;;;;;;;;5050199;28;20024;-69
2021/07/29 06:07:08;;;;;;;1.45;0.22;;;;;;;;;;5048592;28;20049;-69
2021/07/29 06:09:35;;;;;;;2.30;0.60;;;;;;;;;;5048610;28;20401;-69
2021/07/29 06:12:02;;;;;;;2.58;0.32;;;;;;;;;;5049456;28;20094;-70
2021/07/29 06:14:29;;;;;;;3.08;0.38;;;;;;;;;;5045087;28;20037;-69
2021/07/29 06:16:56;;;;;;;1.20;0.40;;;;;;;;;;5049224;28;20037;-70
2021/07/29 06:19:31;;;;;;;2.25;0.28;;;;;;;;;;5047721;28;20044;-69
2021/07/29 06:21:58;;;;;;;3.67;0.55;;;;;;;;;;5047575;28;20123;-68
2021/07/29 06:24:29;;;;;;;2.70;0.63;;;;;;;;;;5048712;28;20493;-68
2021/07/29 06:26:59;;;;;;;3.47;0.60;;;;;;;;;;5050387;28;20034;-69
2021/07/29 06:29:26;;;;;;;5.30;0.40;;;;;;;;;;5048055;28;20025;-68
2021/07/29 06:31:53;;;;;;;3.50;0.47;;;;;;;;;;5047122;28;20021;-68
2021/07/29 06:34:20;;;;;;;4.03;0.38;;;;;;;;;;5059242;28;20029;-68
2021/07/29 06:36:47;;;;;;;2.28;0.40;;;;;;;;;;5051540;28;20105;-68
2021/07/29 06:39:14;;;;;;;4.45;0.45;;;;;;;;;;5050568;28;20028;-69
2021/07/29 06:41:42;;;;;;;3.10;0.60;;;;;;;;;;5053386;28;20032;-69
2021/07/29 06:44:09;;;;;;;2.75;0.30;;;;;;;;;;5051779;28;20044;-69
2021/07/29 06:46:37;;;;;;;2.88;0.65;;;;;;;;;;5047831;28;20044;-70
2021/07/29 06:49:05;;;;;;;3.17;0.30;;;;;;;;;;5053046;28;20021;-69
2021/07/29 06:51:32;;;;;;;2.88;0.50;;;;;;;;;;5050421;28;20041;-69
2021/07/29 06:54:00;;;;;;;1.33;0.30;;;;;;;;;;5048194;28;20119;-70
2021/07/29 06:56:27;;;;;;;3.83;0.47;;;;;;;;;;5046120;28;20029;-70
2021/07/29 06:58:54;;;;;;;4.65;0.50;;;;;;;;;;5060908;28;20025;-69
2021/07/29 07:01:21;;;;;;;4.38;1.08;;;;;;;;;;5060971;28;20464;-70
2021/07/29 07:03:48;;;;;;;2.65;0.35;;;;;;;;;;5057854;28;20455;-70
2021/07/29 07:06:16;;;;;;;3.08;0.73;;;;;;;;;;5057211;28;20076;-70
2021/07/29 07:08:43;;;;;;;1.95;0.40;;;;;;;;;;5057288;28;20498;-70
2021/07/29 07:11:17;;;;;;;4.05;0.75;;;;;;;;;;5072647;28;20029;-71
2021/07/29 07:13:46;;;;;;;1.57;0.40;;;;;;;;;;5061071;28;20029;-71
2021/07/29 07:16:14;;;;;;;2.35;0.40;;;;;;;;;;5056875;28;20115;-71
2021/07/29 07:18:41;;;;;;;4.72;0.60;;;;;;;;;;5061095;28;20020;-69
2021/07/29 07:21:09;;;;;;;3.40;0.70;;;;;;;;;;5067484;28;20237;-71
2021/07/29 07:23:38;;;;;;;2.10;0.50;;;;;;;;;;5049800;28;20029;-70
2021/07/29 07:26:06;;;;;;;4.75;0.85;;;;;;;;;;5051327;28;20037;-69
2021/07/29 07:28:33;;;;;;;4.40;0.70;;;;;;;;;;5056830;28;20467;-71
2021/07/29 07:31:00;;;;;;;2.67;0.80;;;;;;;;;;5070465;28;20493;-71
2021/07/29 07:33:27;;;;;;;2.45;0.50;;;;;;;;;;5066012;28;20090;-69
2021/07/29 07:35:54;;;;;;;5.00;1.08;;;;;;;;;;5054526;28;20048;-69
2021/07/29 07:38:21;;;;;;;4.70;0.63;;;;;;;;;;5046229;28;20041;-70
2021/07/29 07:40:50;;;;;;;3.53;1.00;;;;;;;;;;5045761;28;20021;-69
2021/07/29 07:43:17;;;;;;;4.50;0.98;;;;;;;;;;5049847;28;20080;-69
2021/07/29 07:45:45;;;;;;;3.38;0.60;;;;;;;;;;5049781;28;20029;-68
2021/07/29 07:48:12;;;;;;;5.90;0.90;;;;;;;;;;5048656;28;20043;-70
2021/07/29 07:50:40;;;;;;;4.50;1.20;;;;;;;;;;5049976;28;20028;-69
2021/07/29 07:53:07;;;;;;;2.95;1.00;;;;;;;;;;5049822;28;20052;-69
2021/07/29 07:55:37;;;;;;;3.53;0.80;;;;;;;;;;5044732;28;20041;-69
2021/07/29 07:58:04;;;;;;;4.03;1.05;;;;;;;;;;5049066;28;20390;-69
2021/07/29 08:00:32;;;;;;;5.55;1.02;;;;;;;;;;5049789;28;20028;-69
2021/07/29 08:02:59;;;;;;;4.15;1.45;;;;;;;;;;5048712;28;20073;-69
2021/07/29 08:05:26;;;;;;;3.75;0.93;;;;;;;;;;5048607;28;20055;-67
2021/07/29 08:07:54;;;;;;;4.38;1.05;;;;;;;;;;5048904;28;20482;-69
2021/07/29 08:10:21;;;;;;;4.57;0.95;;;;;;;;;;5050763;28;20027;-69
2021/07/29 08:12:48;;;;;;;3.92;1.45;;;;;;;;;;5051300;28;20377;-69
2021/07/29 08:15:15;;;;;;;4.88;1.08;;;;;;;;;;5054874;28;20421;-68
2021/07/29 08:17:42;;;;;;;3.30;1.10;;;;;;;;;;5047814;28;20049;-67
2021/07/29 08:20:09;;;;;;;5.55;1.48;;;;;;;;;;5055802;28;20013;-68
2021/07/29 08:22:36;;;;;;;6.78;1.67;;;;;;;;;;5050873;28;20099;-68
2021/07/29 08:25:04;;;;;;;3.75;1.23;;;;;;;;;;5048694;28;20055;-67
2021/07/29 08:27:34;;;;;;;5.90;1.33;;;;;;;;;;5051362;28;20040;-68
2021/07/29 08:30:01;;;;;;;6.05;1.50;;;;;;;;;;5051164;28;20116;-69
2021/07/29 08:32:29;;;;;;;6.13;2.13;;;;;;;;;;5048264;28;20549;-71
2021/07/29 08:34:57;;;;;;;4.30;1.48;;;;;;;;;;5045542;28;20037;-69
2021/07/29 08:37:25;;;;;;;8.75;1.80;;;;;;;;;;5047797;28;20080;-69
2021/07/29 08:39:52;;;;;;;6.45;1.58;;;;;;;;;;5040522;28;20030;-70
2021/07/29 08:42:19;;;;;;;6.00;1.50;;;;;;;;;;5048316;28;20109;-69
2021/07/29 08:44:46;;;;;;;5.50;2.10;;;;;;;;;;5045422;28;20032;-70
2021/07/29 08:47:14;;;;;;;5.18;1.45;;;;;;;;;;5045407;28;20551;-69
2021/07/29 08:49:42;;;;;;;4.88;1.40;;;;;;;;;;5048392;28;20104;-69
2021/07/29 08:52:09;;;;;;;5.90;1.45;;;;;;;;;;5046066;28;20033;-69
2021/07/29 08:54:38;;;;;;;6.93;1.92;;;;;;;;;;5053668;28;20028;-69
2021/07/29 08:57:06;;;;;;;5.80;1.80;;;;;;;;;;5047237;28;20037;-69
2021/07/29 08:59:33;;;;;;;5.65;1.98;;;;;;;;;;5048735;28;20120;-70
2021/07/29 09:02:01;;;;;;;7.80;2.38;;;;;;;;;;5043423;28;20061;-69
2021/07/29 09:04:28;;;;;;;6.20;2.70;;;;;;;;;;5058150;28;20037;-68
2021/07/29 09:07:00;;;;;;;6.00;2.25;;;;;;;;;;5048112;28;20037;-70
2021/07/29 09:09:46;;;;;;;6.80;2.30;;;;;;;;;;5058147;28;20037;-68
2021/07/29 09:12:17;;;;;;;10.05;2.33;;;;;;;;;;5046398;28;20445;-70
2021/07/29 09:14:45;;;;;;;6.30;2.17;;;;;;;;;;5048583;28;20021;-70
2021/07/29 09:17:12;;;;;;;7.68;2.35;;;;;;;;;;5051835;28;20551;-70
2021/07/29 09:19:41;;;;;;;5.90;2.15;;;;;;;;;;5051617;28;20112;-70
2021/07/29 09:22:18;;;;;;;7.15;2.42;;;;;;;;;;5050393;28;20029;-72
2021/07/29 09:24:59;;;;;;;7.10;2.22;;;;;;;;;;5050073;28;20021;-69
2021/07/29 09:27:26;;;;;;;7.38;2.55;;;;;;;;;;5048601;28;20480;-69
2021/07/29 09:29:54;;;;;;;9.13;2.63;;;;;;;;;;5046203;28;20029;-71
2021/07/29 09:32:22;;;;;;;6.13;2.30;;;;;;;;;;5048667;28;20067;-70
2021/07/29 09:34:51;;;;;;;7.20;2.47;;;;;;;;;;5051439;28;20497;-69
2021/07/29 09:37:20;;;;;;;6.50;2.60;;;;;;;;;;5048082;28;20079;-68
2021/07/29 09:39:58;;;;;;;11.68;2.38;;;;;;;;;;5048972;28;20032;-68
2021/07/29 09:42:25;;;;;;;7.00;2.30;;;;;;;;;;5048948;28;20024;-70
2021/07/29 09:44:54;;;;;;;5.80;1.95;;;;;;;;;;5043206;28;20787;-70
2021/07/29 09:47:21;;;;;;;8.65;3.08;;;;;;;;;;5052990;28;20063;-71
2021/07/29 09:49:50;;;;;;;6.63;2.10;;;;;;;;;;5045317;28;20037;-71
2021/07/29 09:52:17;;;;;;;5.25;1.60;;;;;;;;;;5053334;28;20081;-70
2021/07/29 09:54:46;;;;;;;6.78;2.00;;;;;;;;;;5051420;28;20036;-70
2021/07/29 09:57:14;;;;;;;4.90;1.67;;;;;;;;;;5052124;28;20033;-70
2021/07/29 09:59:41;;;;;;;10.38;2.40;;;;;;;;;;5052587;28;20021;-69
2021/07/29 10:02:09;;;;;;;5.05;1.63;;;;;;;;;;5053859;28;20389;-69
2021/07/29 10:04:36;;;;;;;6.55;1.83;;;;;;;;;;5049574;28;20045;-70
2021/07/29 10:07:05;;;;;;;5.40;1.95;;;;;;;;;;5053092;28;20029;-69
2021/07/29 10:09:33;;;;;;;7.57;1.90;;;;;;;;;;5045805;28;20044;-69
2021/07/29 10:12:01;;;;;;;8.52;1.42;;;;;;;;;;5049838;28;20029;-70
2021/07/29 10:14:46;;;;;;;7.97;1.70;;;;;;;;;;5034751;28;20092;-70
2021/07/29 10:17:13;;;;;;;9.27;2.53;;;;;;;;;;5050583;28;20501;-70
2021/07/29 10:20:01;;;;;;;6.57;2.20;;;;;;;;;;5053771;28;20021;-71
2021/07/29 10:22:28;;;;;;;9.27;3.58;;;;;;;;;;5047253;28;20438;-69
2021/07/29 10:24:55;;;;;;;10.73;5.40;;;;;;;;;;5051490;28;20052;-70
2021/07/29 10:27:22;;;;;;;13.85;6.70;;;;;;;;;;5051189;28;20417;-69
2021/07/29 10:29:50;;;;;;;10.63;3.80;;;;;;;;;;5038018;28;20041;-68
2021/07/29 10:32:36;;;;;;;6.22;2.13;;;;;;;;;;5039944;28;20085;-69
2021/07/29 10:35:23;;;;;;;13.85;2.75;;;;;;;;;;5033666;28;20033;-69
2021/07/29 10:37:53;;;;;;;5.22;2.13;;;;;;;;;;5043211;28;20045;-69
2021/07/29 10:40:33;;;;;;;5.90;1.95;;;;;;;;;;5036804;28;20091;-69
2021/07/29 10:43:18;;;;;;;6.90;2.00;;;;;;;;;;5033592;28;20025;-69
2021/07/29 10:45:51;;;;;;;7.22;2.13;;;;;;;;;;5051526;28;20060;-70
2021/07/29 10:48:37;;;;;;;7.55;1.98;;;;;;;;;;5049997;28;20021;-70
2021/07/29 10:51:13;;;;;;;4.72;1.20;;;;;;;;;;5036245;28;20056;-70
2021/07/29 10:53:44;;;;;;;4.05;1.00;;;;;;;;;;5052221;28;20040;-70
2021/07/29 10:56:12;;;;;;;9.27;2.28;;;;;;;;;;5037515;28;20034;-71
2021/07/29 10:58:43;;;;;;;5.45;1.75;;;;;;;;;;5045588;28;20366;-69
2021/07/29 11:01:11;;;;;;;6.63;2.08;;;;;;;;;;5034032;28;20056;-68
2021/07/29 11:03:54;;;;;;;6.07;1.48;;;;;;;;;;5035494;28;20107;-69
2021/07/29 11:06:28;;;;;;;7.22;1.75;;;;;;;;;;5046460;28;20031;-70
2021/07/29 11:08:55;;;;;;;7.05;2.10;;;;;;;;;;5038332;28;20032;-69
2021/07/29 11:11:22;;;;;;;7.90;1.23;;;;;;;;;;5051288;28;20037;-70
2021/07/29 11:13:51;;;;;;;7.72;1.98;;;;;;;;;;5038063;28;20091;-68
2021/07/29 11:16:18;;;;;;;7.35;1.42;;;;;;;;;;5041622;28;20053;-69
2021/07/29 11:19:02;;;;;;;8.88;1.75;;;;;;;;;;5043974;28;20030;-70
2021/07/29 11:21:29;;;;;;;11.85;2.67;;;;;;;;;;5049585;28;20033;-70
2021/07/29 11:23:56;;;;;;;7.50;1.65;;;;;;;;;;5056373;28;20443;-69
2021/07/29 11:26:23;;;;;;;7.85;1.77;;;;;;;;;;5055841;28;20025;-70
2021/07/29 11:29:10;;;;;;;7.18;1.48;;;;;;;;;;5036152;28;20028;-69
2021/07/29 11:31:39;;;;;;;6.38;1.65;;;;;;;;;;5039317;28;20064;-70
2021/07/29 11:34:06;;;;;;;8.95;2.33;;;;;;;;;;5046972;28;20029;-68
2021/07/29 11:36:34;;;;;;;5.90;1.45;;;;;;;;;;5046861;28;20053;-69
2021/07/29 11:39:10;;;;;;;8.45;1.70;;;;;;;;;;5039364;28;20035;-70
2021/07/29 11:41:54;;;;;;;10.18;2.70;;;;;;;;;;5048188;28;20028;-69
2021/07/29 11:44:21;;;;;;;7.15;2.35;;;;;;;;;;5048263;28;20017;-69
2021/07/29 11:46:58;;;;;;;9.32;2.13;;;;;;;;;;5046895;28;20692;-69
2021/07/29 11:49:25;;;;;;;9.07;3.42;;;;;;;;;;5044917;28;20025;-69
2021/07/29 11:52:06;;;;;;;8.68;2.00;;;;;;;;;;5048606;28;20052;-69
2021/07/29 11:54:34;;;;;;;5.82;2.00;;;;;;;;;;5045483;28;20504;-69
2021/07/29 11:57:01;;;;;;;10.02;2.50;;;;;;;;;;5043613;28;20025;-69
2021/07/29 11:59:42;;;;;;;9.18;2.80;;;;;;;;;;5039268;28;20485;-69
2021/07/29 12:02:10;;;;;;;10.13;3.67;;;;;;;;;;5047861;28;20021;-69
2021/07/29 12:04:41;;;;;;;10.27;3.17;;;;;;;;;;5046139;28;20550;-68
2021/07/29 12:07:09;;;;;;;8.85;2.78;;;;;;;;;;5049954;28;20037;-69
2021/07/29 12:09:40;;;;;;;8.82;2.30;;;;;;;;;;5048952;28;20417;-67
2021/07/29 12:12:07;;;;;;;8.32;2.30;;;;;;;;;;5060279;28;20446;-68
2021/07/29 12:14:36;;;;;;;8.32;2.30;;;;;;;;;;5048263;28;20405;-69
2021/07/29 12:17:03;;;;;;;10.20;2.70;;;;;;;;;;5050400;28;20041;-69
2021/07/29 12:19:31;;;;;;;9.15;2.50;;;;;;;;;;5049015;28;20108;-69
2021/07/29 12:21:58;;;;;;;5.30;2.13;;;;;;;;;;5048397;28;20341;-69
2021/07/29 12:24:44;;;;;;;6.63;2.20;;;;;;;;;;5049302;28;20048;-68
2021/07/29 12:27:12;;;;;;;9.90;3.33;;;;;;;;;;5043228;28;20074;-69
2021/07/29 12:29:46;;;;;;;6.93;2.45;;;;;;;;;;5048209;28;20457;-69
2021/07/29 12:32:19;;;;;;;7.70;2.10;;;;;;;;;;5048674;28;20045;-69
2021/07/29 12:34:47;;;;;;;9.07;2.55;;;;;;;;;;5045123;28;20036;-69
2021/07/29 12:37:14;;;;;;;9.75;2.78;;;;;;;;;;5048903;28;20051;-69
2021/07/29 12:39:46;;;;;;;9.18;2.80;;;;;;;;;;5048351;28;20086;-67
2021/07/29 12:42:26;;;;;;;6.78;2.67;;;;;;;;;;5051025;28;20463;-71
2021/07/29 12:45:00;;;;;;;8.07;2.35;;;;;;;;;;5049194;28;20394;-69
2021/07/29 12:47:27;;;;;;;8.33;2.60;;;;;;;;;;5050133;28;20477;-68
2021/07/29 12:49:54;;;;;;;9.57;2.85;;;;;;;;;;5047250;28;20068;-69
2021/07/29 12:52:22;;;;;;;11.20;3.03;;;;;;;;;;5049820;28;20553;-69
2021/07/29 12:55:02;;;;;;;8.75;2.95;;;;;;;;;;5040974;28;20063;-69
2021/07/29 12:57:29;;;;;;;10.07;2.90;;;;;;;;;;5051256;28;20034;-68
2021/07/29 12:59:56;;;;;;;11.23;2.72;;;;;;;;;;5047439;28;20033;-69
2021/07/29 13:02:23;;;;;;;8.43;2.65;;;;;;;;;;5050273;28;20116;-69
2021/07/29 13:04:51;;;;;;;10.55;2.90;;;;;;;;;;5047202;28;20025;-69
2021/07/29 13:07:18;;;;;;;8.07;2.60;;;;;;;;;;5051126;28;20028;-68
2021/07/29 13:09:47;;;;;;;8.80;2.97;;;;;;;;;;5049990;28;20052;-68
2021/07/29 13:12:14;;;;;;;9.82;3.15;;;;;;;;;;5049507;28;20090;-68
2021/07/29 13:14:41;;;;;;;9.95;3.00;;;;;;;;;;5048146;28;20033;-68
2021/07/29 13:17:08;;;;;;;11.65;2.72;;;;;;;;;;5050691;28;20210;-68
2021/07/29 13:19:35;;;;;;;15.00;2.83;;;;;;;;;;5048284;28;20040;-68
2021/07/29 13:22:02;;;;;;;15.05;3.17;;;;;;;;;;5050502;28;20029;-68
2021/07/29 13:24:30;;;;;;;11.02;2.97;;;;;;;;;;5044890;28;20033;-68
2021/07/29 13:26:57;;;;;;;9.25;3.22;;;;;;;;;;5049202;28;20029;-68
2021/07/29 13:29:24;;;;;;;9.18;2.60;;;;;;;;;;5034452;28;20029;-68
2021/07/29 13:31:51;;;;;;;7.05;2.70;;;;;;;;;;5049761;28;20032;-67
2021/07/29 13:34:18;;;;;;;8.20;3.38;;;;;;;;;;5048790;28;20044;-68
2021/07/29 13:36:46;;;;;;;6.78;3.13;;;;;;;;;;5049686;28;20048;-68
2021/07/29 13:39:13;;;;;;;8.32;2.72;;;;;;;;;;5048301;28;20025;-68
2021/07/29 13:41:40;;;;;;;11.77;3.47;;;;;;;;;;5048889;28;20037;-68
2021/07/29 13:44:09;;;;;;;8.20;2.83;;;;;;;;;;5046760;28;20035;-68
2021/07/29 13:46:36;;;;;;;9.50;3.22;;;;;;;;;;5047499;28;20616;-68
2021/07/29 13:49:03;;;;;;;13.73;3.53;;;;;;;;;;5043605;28;20029;-68
2021/07/29 13:51:30;;;;;;;12.82;3.35;;;;;;;;;;5050083;28;20505;-68
2021/07/29 13:53:57;;;;;;;10.05;3.25;;;;;;;;;;5045744;28;20500;-69
2021/07/29 13:56:24;;;;;;;6.95;2.75;;;;;;;;;;5061030;28;20029;-69
2021/07/29 13:58:52;;;;;;;9.48;2.65;;;;;;;;;;5046808;28;20098;-69
2021/07/29 14:01:19;;;;;;;10.43;2.70;;;;;;;;;;5049346;28;20024;-67
2021/07/29 14:03:46;;;;;;;10.30;3.08;;;;;;;;;;5052934;28;20025;-68
2021/07/29 14:06:14;;;;;;;8.77;2.45;;;;;;;;;;5054197;28;20017;-68
2021/07/29 14:08:43;;;;;;;11.73;4.05;;;;;;;;;;5051233;28;20158;-68
2021/07/29 14:11:13;;;;;;;12.45;3.05;;;;;;;;;;5053603;28;20025;-69
2021/07/29 14:13:41;;;;;;;8.55;3.05;;;;;;;;;;5049076;28;20416;-68
2021/07/29 14:16:09;;;;;;;9.38;2.70;;;;;;;;;;5050185;28;20021;-68
2021/07/29 14:18:37;;;;;;;10.40;3.28;;;;;;;;;;5049253;28;20095;-68
2021/07/29 14:21:09;;;;;;;9.02;2.38;;;;;;;;;;5052841;28;20503;-68
2021/07/29 14:23:37;;;;;;;8.52;2.78;;;;;;;;;;5050346;28;20115;-68
2021/07/29 14:26:04;;;;;;;12.95;4.00;;;;;;;;;;5052658;28;20017;-69
2021/07/29 14:28:31;;;;;;;11.85;3.28;;;;;;;;;;5051239;28;20024;-69
2021/07/29 14:30:58;;;;;;;8.65;2.72;;;;;;;;;;5051795;28;20071;-68
2021/07/29 14:33:25;;;;;;;8.13;3.47;;;;;;;;;;5051378;28;20029;-68
2021/07/29 14:35:53;;;;;;;10.23;2.58;;;;;;;;;;5050414;28;20080;-68
2021/07/29 14:38:38;;;;;;;11.63;3.03;;;;;;;;;;5045314;28;20021;-68
2021/07/29 14:41:05;;;;;;;10.68;3.20;;;;;;;;;;5050455;28;20054;-68
2021/07/29 14:43:33;;;;;;;10.90;3.08;;;;;;;;;;5048803;28;20029;-68
2021/07/29 14:48:37;;;;;;;9.50;3.13;;;;;;;;;;5049862;28;20032;-69
2021/07/29 14:49:12;;;;;;;12.40;3.10;;;;;;;;;;5048504;28;20041;-68
2021/07/29 14:51:40;;;;;;;11.13;4.03;;;;;;;;;;5050906;28;20104;-68